Time;durP1;ratioP1;P1;durP2;ratioP2;P2;SDS_P1;SDS_P2;PMS_P1;PMS_P2;Temp;Humidity;BMP_temperature;BMP_pressure;BME280_temperature;BME280_humidity;BME280_pressure;Samples;Min_cycle;Max_cycle;Signal;HPM_P1;HPM_P2
2022/03/30 00:01:34;;;;;;;36.65;22.77;;;;;;;14.90;56.92;100642.72;5032574;28;20480;-63
2022/03/30 00:04:01;;;;;;;31.15;21.83;;;;;;;14.91;57.09;100644.44;5032620;28;20416;-64
2022/03/30 00:06:27;;;;;;;44.15;22.65;;;;;;;14.84;57.11;100636.13;5032488;28;20453;-63
2022/03/30 00:08:54;;;;;;;36.05;21.48;;;;;;;14.81;57.12;100628.44;5032668;28;20045;-63
2022/03/30 00:11:22;;;;;;;29.77;21.42;;;;;;;14.80;57.06;100626.75;5032474;28;20055;-63
2022/03/30 00:13:48;;;;;;;32.05;22.20;;;;;;;14.79;56.97;100632.16;5031535;28;20068;-63
2022/03/30 00:16:15;;;;;;;31.10;22.00;;;;;;;14.76;56.94;100633.22;5032400;28;20049;-63
2022/03/30 00:18:42;;;;;;;36.67;22.27;;;;;;;14.72;57.06;100626.50;5032319;28;20120;-62
2022/03/30 00:21:09;;;;;;;32.90;22.75;;;;;;;14.71;57.23;100629.25;5032423;28;20111;-63
2022/03/30 00:23:36;;;;;;;30.27;22.52;;;;;;;14.71;57.30;100626.63;5032277;28;20103;-62
2022/03/30 00:26:03;;;;;;;32.55;22.08;;;;;;;14.69;56.92;100617.00;5031977;28;20049;-63
2022/03/30 00:28:29;;;;;;;34.28;22.23;;;;;;;14.66;57.06;100614.59;5031375;28;20045;-64
2022/03/30 00:30:56;;;;;;;31.88;21.55;;;;;;;14.62;57.08;100609.63;5031034;28;20053;-63
2022/03/30 00:33:24;;;;;;;28.55;20.73;;;;;;;14.60;57.08;100607.13;5032228;28;20042;-63
2022/03/30 00:35:51;;;;;;;30.35;20.65;;;;;;;14.60;56.98;100601.84;5032186;28;20061;-63
2022/03/30 00:38:18;;;;;;;28.88;19.38;;;;;;;14.58;56.85;100595.00;5032044;28;20049;-63
2022/03/30 00:40:45;;;;;;;26.63;18.67;;;;;;;14.53;56.79;100598.81;5032056;28;20045;-64
2022/03/30 00:43:12;;;;;;;28.85;19.08;;;;;;;14.50;56.62;100591.13;5032145;28;20406;-64
2022/03/30 00:45:39;;;;;;;28.02;19.75;;;;;;;14.49;56.60;100592.06;5031018;28;20108;-63
2022/03/30 00:48:07;;;;;;;27.42;19.15;;;;;;;14.45;56.56;100585.34;5032233;28;20103;-62
2022/03/30 00:50:34;;;;;;;28.08;19.30;;;;;;;14.47;56.36;100575.50;5032116;28;20057;-63
2022/03/30 00:53:00;;;;;;;25.20;18.67;;;;;;;14.44;56.23;100572.28;5032016;28;20049;-63
2022/03/30 00:55:27;;;;;;;31.45;19.00;;;;;;;14.42;56.22;100571.53;5031999;28;20053;-63
2022/03/30 00:57:55;;;;;;;27.15;19.20;;;;;;;14.39;56.30;100574.44;5031921;28;20054;-63
2022/03/30 01:07:43;;;;;;;28.50;18.10;;;;;;;14.32;56.07;100559.03;5012310;28;20192;-63
2022/03/30 01:10:11;;;;;;;29.85;18.50;;;;;;;14.31;55.98;100556.50;5012373;28;20050;-63
2022/03/30 01:12:39;;;;;;;22.75;17.30;;;;;;;14.29;56.11;100551.34;5011979;28;20541;-63
2022/03/30 01:15:12;;;;;;;26.50;18.60;;;;;;;14.24;56.13;100547.38;5012093;28;20457;-63
2022/03/30 01:17:39;;;;;;;26.52;18.10;;;;;;;14.24;56.31;100542.09;5021878;28;20536;-63
2022/03/30 01:20:10;;;;;;;29.65;17.98;;;;;;;14.25;56.21;100535.88;5031890;28;20053;-63
2022/03/30 01:22:39;;;;;;;25.10;18.20;;;;;;;14.22;56.27;100534.31;5031505;28;20482;-63
2022/03/30 01:25:07;;;;;;;24.35;17.45;;;;;;;14.19;56.39;100530.09;5031827;28;20129;-63
2022/03/30 01:27:33;;;;;;;29.55;17.92;;;;;;;14.18;56.37;100528.41;5031677;28;20042;-63
2022/03/30 01:32:59;;;;;;;27.73;18.23;;;;;;;14.15;56.56;100515.44;5030716;28;20099;-63
2022/03/30 01:35:26;;;;;;;29.77;18.08;;;;;;;14.13;56.33;100516.50;5031596;28;20053;-63
2022/03/30 01:37:53;;;;;;;29.42;17.88;;;;;;;14.07;56.60;100511.69;5032853;28;20068;-63
2022/03/30 01:40:20;;;;;;;26.92;17.30;;;;;;;14.09;56.43;100512.44;5035224;28;20050;-63
2022/03/30 01:42:47;;;;;;;24.40;17.95;;;;;;;14.04;56.77;100505.69;5035301;28;20103;-63
2022/03/30 01:45:15;;;;;;;25.35;17.00;;;;;;;14.06;56.54;100513.50;5035179;28;20048;-63
2022/03/30 01:47:50;;;;;;;28.55;17.75;;;;;;;14.05;56.71;100498.63;5035011;28;20111;-63
2022/03/30 01:50:17;;;;;;;26.02;16.83;;;;;;;14.06;56.70;100502.13;5034240;28;20525;-64
2022/03/30 01:52:45;;;;;;;27.40;17.35;;;;;;;14.05;56.57;100490.69;5034974;28;20057;-63
2022/03/30 01:55:13;;;;;;;23.25;17.08;;;;;;;14.06;56.50;100488.94;5034992;28;20107;-63
2022/03/30 01:57:40;;;;;;;25.67;16.75;;;;;;;14.04;56.78;100489.00;5034984;28;20046;-63
2022/03/30 02:00:07;;;;;;;26.85;16.75;;;;;;;14.02;56.67;100475.13;5034859;28;20100;-62
2022/03/30 02:02:34;;;;;;;23.60;17.15;;;;;;;14.01;56.85;100476.91;5034737;28;20580;-63
2022/03/30 02:05:08;;;;;;;23.55;16.42;;;;;;;14.00;56.87;100463.81;5033828;28;20481;-63
2022/03/30 02:07:39;;;;;;;25.17;16.45;;;;;;;13.98;56.89;100473.66;5034804;28;20057;-63
2022/03/30 02:10:08;;;;;;;26.98;16.65;;;;;;;13.97;57.04;100467.53;5034704;28;20049;-63
2022/03/30 02:12:36;;;;;;;27.17;16.13;;;;;;;13.98;57.06;100463.09;5034539;28;20076;-63
2022/03/30 02:15:04;;;;;;;22.50;15.73;;;;;;;13.97;57.10;100462.25;5034652;28;20049;-63
2022/03/30 02:17:32;;;;;;;23.27;16.52;;;;;;;14.00;56.85;100461.19;5034453;28;20054;-63
2022/03/30 02:19:59;;;;;;;23.92;16.48;;;;;;;13.93;57.25;100442.34;5034585;28;20426;-63
2022/03/30 02:22:26;;;;;;;24.48;15.68;;;;;;;13.91;57.21;100441.63;5033376;28;20544;-63
2022/03/30 02:24:53;;;;;;;21.30;15.38;;;;;;;13.93;57.42;100437.06;5034619;28;20081;-63
2022/03/30 02:27:20;;;;;;;21.63;15.80;;;;;;;13.94;57.21;100440.53;5034549;28;20087;-63
2022/03/30 02:29:51;;;;;;;23.08;15.88;;;;;;;13.96;57.21;100447.38;5034544;28;20049;-62
2022/03/30 02:32:22;;;;;;;21.25;15.20;;;;;;;13.94;57.35;100445.81;5034202;28;20525;-63
2022/03/30 02:34:49;;;;;;;27.38;16.05;;;;;;;13.94;57.33;100443.19;5034455;28;20965;-63
2022/03/30 02:37:16;;;;;;;20.02;14.40;;;;;;;13.92;57.43;100430.13;5031574;28;20478;-63
2022/03/30 02:39:43;;;;;;;22.00;15.00;;;;;;;13.93;57.39;100433.59;5034043;28;20111;-63
2022/03/30 02:42:10;;;;;;;21.58;14.55;;;;;;;13.94;57.22;100435.28;5034023;28;20449;-63
2022/03/30 02:44:37;;;;;;;20.83;14.88;;;;;;;13.89;57.53;100433.00;5033976;28;20045;-63
2022/03/30 02:47:06;;;;;;;22.65;15.75;;;;;;;13.88;57.39;100440.06;5034082;28;20045;-63
2022/03/30 02:49:33;;;;;;;21.20;14.48;;;;;;;13.86;57.53;100433.22;5033714;28;20050;-64
2022/03/30 02:52:00;;;;;;;22.77;14.82;;;;;;;13.85;57.45;100434.16;5033987;28;20045;-63
2022/03/30 02:54:26;;;;;;;24.17;14.98;;;;;;;13.85;57.30;100437.66;5032619;28;20107;-63
2022/03/30 02:56:53;;;;;;;22.00;15.68;;;;;;;13.83;57.49;100431.66;5033757;28;20689;-62
2022/03/30 02:59:20;;;;;;;21.45;15.07;;;;;;;13.84;57.63;100435.13;5033833;28;20049;-63
2022/03/30 03:01:47;;;;;;;23.50;14.65;;;;;;;13.80;57.66;100431.91;5032764;28;20051;-63
2022/03/30 03:04:14;;;;;;;22.45;14.32;;;;;;;13.82;57.59;100431.78;5029318;28;20081;-63
2022/03/30 03:06:40;;;;;;;20.33;14.60;;;;;;;13.80;57.67;100420.50;5030122;28;20049;-63
2022/03/30 03:09:08;;;;;;;18.77;13.48;;;;;;;13.78;57.78;100425.06;5029456;28;20050;-63
2022/03/30 03:11:35;;;;;;;22.70;13.60;;;;;;;13.76;57.80;100416.41;5030041;28;20046;-63
2022/03/30 03:14:05;;;;;;;20.80;13.73;;;;;;;13.75;57.88;100414.72;5030028;28;20046;-63
2022/03/30 03:16:33;;;;;;;17.95;12.60;;;;;;;13.75;58.01;100418.22;5030202;28;20184;-63
2022/03/30 03:19:00;;;;;;;22.10;13.82;;;;;;;13.78;57.71;100417.97;5030231;28;20081;-63
2022/03/30 03:21:26;;;;;;;20.92;12.63;;;;;;;13.76;58.08;100416.41;5030029;28;20053;-63
2022/03/30 03:23:53;;;;;;;20.27;13.02;;;;;;;13.77;58.15;100421.56;5030074;28;20103;-63
2022/03/30 03:26:20;;;;;;;24.65;13.15;;;;;;;13.77;57.92;100416.28;5028047;28;20506;-63
2022/03/30 03:28:47;;;;;;;21.25;13.10;;;;;;;13.74;58.09;100416.53;5030259;28;20045;-63
2022/03/30 03:31:13;;;;;;;23.50;12.93;;;;;;;13.74;57.95;100426.22;5029912;28;20053;-63
2022/03/30 03:33:40;;;;;;;19.67;13.30;;;;;;;13.73;58.03;100417.47;5029773;28;20128;-63
2022/03/30 03:36:07;;;;;;;26.33;12.95;;;;;;;13.74;58.12;100429.72;5030124;28;20096;-63
2022/03/30 03:38:40;;;;;;;20.08;12.98;;;;;;;13.75;58.00;100428.75;5029679;28;20076;-63
2022/03/30 03:41:18;;;;;;;20.75;12.93;;;;;;;13.74;57.99;100413.03;5029467;28;20076;-63
2022/03/30 03:43:57;;;;;;;21.20;12.55;;;;;;;13.76;57.93;100426.97;5027751;28;20115;-63
2022/03/30 03:46:29;;;;;;;20.80;12.82;;;;;;;13.74;57.97;100423.59;5029182;28;20080;-63
2022/03/30 03:48:56;;;;;;;19.23;12.48;;;;;;;13.74;57.95;100421.81;5029745;28;20128;-62
2022/03/30 03:51:23;;;;;;;17.55;12.07;;;;;;;13.72;58.15;100423.72;5029573;28;20057;-63
2022/03/30 03:53:50;;;;;;;23.65;12.90;;;;;;;13.70;58.12;100420.38;5029455;28;20045;-63
2022/03/30 03:56:17;;;;;;;21.27;13.05;;;;;;;13.73;58.07;100411.38;5029372;28;20057;-63
2022/03/30 03:58:43;;;;;;;18.42;12.45;;;;;;;13.72;58.04;100405.25;5029257;28;20107;-63
2022/03/30 04:01:10;;;;;;;22.80;12.82;;;;;;;13.73;57.90;100404.28;5027383;28;20452;-63
2022/03/30 04:03:37;;;;;;;18.50;11.70;;;;;;;13.71;58.07;100399.16;5029086;28;20091;-63
2022/03/30 04:06:04;;;;;;;16.90;12.20;;;;;;;13.68;58.18;100401.16;5029336;28;20605;-63
2022/03/30 04:08:30;;;;;;;19.63;12.55;;;;;;;13.69;58.13;100397.59;5029158;28;20050;-64
2022/03/30 04:10:57;;;;;;;22.67;12.70;;;;;;;13.70;57.98;100394.81;5029263;28;20049;-63
2022/03/30 04:13:25;;;;;;;21.90;13.73;;;;;;;13.73;57.92;100400.84;5029229;28;20486;-63
2022/03/30 04:15:52;;;;;;;22.00;12.45;;;;;;;13.70;57.99;100399.28;5028410;28;20049;-63
2022/03/30 04:18:21;;;;;;;19.98;12.73;;;;;;;13.69;58.01;100397.59;5029309;28;20045;-63
2022/03/30 04:20:48;;;;;;;19.23;12.50;;;;;;;13.73;58.00;100408.75;5029290;28;20065;-63
2022/03/30 04:23:14;;;;;;;19.48;12.50;;;;;;;13.73;57.93;100400.84;5028631;28;20052;-63
2022/03/30 04:25:41;;;;;;;23.55;12.90;;;;;;;13.68;58.08;100398.53;5028816;28;20049;-63
2022/03/30 04:28:08;;;;;;;20.15;13.25;;;;;;;13.67;58.05;100404.75;5029206;28;20559;-63
2022/03/30 04:30:34;;;;;;;19.63;12.65;;;;;;;13.65;58.04;100407.50;5029300;28;20050;-63
2022/03/30 04:33:01;;;;;;;19.88;13.05;;;;;;;13.66;58.00;100397.78;5027055;28;20504;-63
2022/03/30 04:35:28;;;;;;;20.73;13.30;;;;;;;13.66;58.10;100409.19;5029065;28;20041;-63
2022/03/30 04:37:56;;;;;;;22.63;13.13;;;;;;;13.66;58.05;100406.56;5028797;28;20417;-63
2022/03/30 04:40:24;;;;;;;20.83;12.75;;;;;;;13.68;58.04;100402.00;5028841;28;20085;-63
2022/03/30 04:42:51;;;;;;;20.90;12.82;;;;;;;13.67;58.04;100399.47;5029090;28;20073;-63
2022/03/30 04:45:19;;;;;;;17.85;12.13;;;;;;;13.67;58.00;100402.13;5029066;28;20473;-63
2022/03/30 04:47:46;;;;;;;21.42;13.55;;;;;;;13.67;58.05;100405.59;5028925;28;20053;-63
2022/03/30 04:50:13;;;;;;;18.98;12.75;;;;;;;13.66;58.02;100395.16;5027316;28;20052;-64
2022/03/30 04:52:41;;;;;;;19.48;13.10;;;;;;;13.68;57.99;100402.00;5028407;28;20053;-63
2022/03/30 04:55:09;;;;;;;19.90;13.10;;;;;;;13.68;57.96;100409.06;5028831;28;20049;-63
2022/03/30 04:57:36;;;;;;;23.85;13.27;;;;;;;13.73;57.99;100408.75;5028856;28;20049;-63
2022/03/30 05:00:08;;;;;;;21.95;12.60;;;;;;;13.70;57.94;100405.38;5028723;28;20100;-62
2022/03/30 05:02:35;;;;;;;22.10;13.07;;;;;;;13.71;58.04;100406.19;5028302;28;20046;-64
2022/03/30 05:05:02;;;;;;;19.65;12.80;;;;;;;14.23;57.12;100409.28;5028259;28;20073;-63
2022/03/30 05:07:29;;;;;;;24.50;12.90;;;;;;;13.99;57.49;100397.03;5026953;28;20057;-63
2022/03/30 05:09:57;;;;;;;20.38;12.48;;;;;;;13.92;57.79;100410.81;5028729;28;20059;-63
2022/03/30 05:12:24;;;;;;;23.60;12.43;;;;;;;13.91;57.80;100411.78;5030954;28;20045;-61
2022/03/30 05:14:52;;;;;;;18.17;12.57;;;;;;;13.90;57.73;100413.56;5032280;28;20050;-62
2022/03/30 05:17:19;;;;;;;25.33;12.90;;;;;;;13.91;57.78;100424.97;5032494;28;20060;-61
2022/03/30 05:19:45;;;;;;;22.98;12.02;;;;;;;13.88;57.89;100423.41;5032458;28;20128;-62
2022/03/30 05:22:12;;;;;;;24.13;12.25;;;;;;;13.88;57.63;100411.03;5032727;28;20045;-61
2022/03/30 05:24:39;;;;;;;27.00;8.63;;;;;;;13.97;58.11;100417.41;5031485;28;20391;-60
2022/03/30 05:27:05;;;;;;;19.75;11.63;;;;;;;14.15;57.85;100406.41;5032449;28;20103;-60
2022/03/30 05:29:32;;;;;;;20.77;12.10;;;;;;;14.09;58.17;100406.88;5032151;28;20041;-61
2022/03/30 05:31:59;;;;;;;21.13;12.32;;;;;;;14.04;58.21;100407.22;5032142;28;20057;-61
2022/03/30 05:34:41;;;;;;;22.08;11.43;;;;;;;13.99;58.04;100401.47;5031975;28;21036;-61
2022/03/30 05:37:08;;;;;;;19.42;11.38;;;;;;;13.93;58.17;100400.16;5032215;28;20937;-61
2022/03/30 05:39:41;;;;;;;17.73;11.23;;;;;;;13.95;58.25;100415.84;5032180;28;20049;-61
2022/03/30 05:42:09;;;;;;;18.17;11.35;;;;;;;13.94;58.15;100408.88;5030908;28;20067;-61
2022/03/30 05:44:36;;;;;;;19.23;11.60;;;;;;;13.95;58.24;100415.84;5032350;28;20077;-66
2022/03/30 05:47:04;;;;;;;25.67;11.70;;;;;;;13.94;58.32;100417.66;5032095;28;20053;-62
2022/03/30 05:49:31;;;;;;;18.48;11.57;;;;;;;13.94;58.37;100412.38;5031684;28;20049;-61
2022/03/30 05:51:57;;;;;;;39.20;7.57;;;;;;;14.13;58.52;100414.44;5031901;28;20045;-61
2022/03/30 05:54:24;;;;;;;22.88;11.73;;;;;;;14.18;58.35;100409.66;5031748;28;20050;-64
2022/03/30 05:57:00;;;;;;;21.10;11.55;;;;;;;14.12;58.37;100419.81;5029554;28;20124;-63
2022/03/30 05:59:48;;;;;;;;;;;;;;;14.06;58.64;100425.59;5011402;28;20457;-63
2022/03/30 06:02:16;;;;;;;21.52;10.93;;;;;;;14.07;58.50;100427.25;5012102;28;19960;-64
2022/03/30 06:04:43;;;;;;;21.75;11.50;;;;;;;14.09;58.21;100431.47;5011937;28;20046;-63
2022/03/30 06:07:10;;;;;;;20.00;11.23;;;;;;;14.15;58.27;100422.25;5011816;28;20056;-63
2022/03/30 06:09:36;;;;;;;16.17;6.43;;;;;;;14.45;58.12;100424.31;5012014;28;20453;-63
2022/03/30 06:12:08;;;;;;;18.67;11.52;;;;;;;14.75;57.34;100422.03;5011906;28;20052;-63
2022/03/30 06:14:35;;;;;;;21.77;11.55;;;;;;;14.46;57.85;100423.34;5012514;28;20132;-64
2022/03/30 06:17:04;;;;;;;18.13;10.63;;;;;;;14.35;57.91;100426.00;5011535;28;20529;-63
2022/03/30 06:19:33;;;;;;;22.05;11.40;;;;;;;14.29;58.18;100421.19;5011461;28;20073;-63
2022/03/30 06:22:01;;;;;;;19.65;11.15;;;;;;;14.24;58.23;100428.63;5011316;28;20449;-63
2022/03/30 06:24:28;;;;;;;17.30;11.07;;;;;;;14.18;58.41;100422.00;5009469;28;20050;-64
2022/03/30 06:26:56;;;;;;;22.70;10.55;;;;;;;14.17;58.66;100430.88;5011625;28;20115;-63
2022/03/30 06:29:22;;;;;;;18.70;11.18;;;;;;;14.15;58.72;100438.06;5011250;28;20494;-64
2022/03/30 06:31:49;;;;;;;44.85;12.05;;;;;;;14.04;58.99;100437.09;5020805;28;20049;-64
2022/03/30 06:34:16;;;;;;;22.98;10.35;;;;;;;14.13;58.59;100437.34;5031066;28;20374;-63
2022/03/30 06:36:44;;;;;;;19.20;10.65;;;;;;;13.98;58.91;100428.78;5030957;28;20115;-63
2022/03/30 06:39:10;;;;;;;22.80;10.60;;;;;;;14.06;58.91;100436.16;5027593;28;20053;-64
2022/03/30 06:41:39;;;;;;;20.98;10.63;;;;;;;14.12;58.84;100439.16;5030062;28;20414;-64
2022/03/30 06:44:05;;;;;;;17.70;8.35;;;;;;;14.13;58.55;100440.84;5030447;28;20486;-64
2022/03/30 06:46:37;;;;;;;23.38;10.23;;;;;;;14.18;58.45;100438.69;5028826;28;20088;-64
2022/03/30 06:49:09;;;;;;;17.13;9.07;;;;;;;14.21;58.78;100432.34;5028594;28;20038;-64
2022/03/30 06:51:37;;;;;;;16.30;9.32;;;;;;;14.25;58.66;100419.75;5029903;28;20049;-64
2022/03/30 06:54:04;;;;;;;17.45;9.63;;;;;;;14.28;58.83;100427.41;5029628;28;20600;-64
2022/03/30 06:56:31;;;;;;;19.45;9.63;;;;;;;14.29;58.84;100431.75;5025924;28;20050;-65
2022/03/30 06:58:58;;;;;;;19.50;10.02;;;;;;;14.31;58.63;100443.00;5028234;28;20503;-64
2022/03/30 07:01:32;;;;;;;16.33;9.10;;;;;;;14.32;58.63;100436.75;5027798;28;20063;-68
2022/03/30 07:03:58;;;;;;;14.93;9.23;;;;;;;14.34;58.76;100440.13;5029716;28;20045;-65
2022/03/30 07:06:25;;;;;;;22.95;9.82;;;;;;;14.34;58.91;100427.78;5029127;28;20050;-66
2022/03/30 07:11:37;;;;;;;17.80;9.53;;;;;;;14.43;58.67;100422.75;5044613;28;20059;-64
2022/03/30 07:14:04;;;;;;;18.27;9.63;;;;;;;14.47;58.45;100418.91;5049814;28;20052;-64
2022/03/30 07:16:30;;;;;;;20.50;9.68;;;;;;;14.47;58.57;100427.66;5049764;28;20098;-64
2022/03/30 07:18:57;;;;;;;21.75;10.15;;;;;;;14.50;58.61;100423.94;5049199;28;20059;-64
2022/03/30 07:21:24;;;;;;;21.00;9.20;;;;;;;14.50;58.68;100416.88;5049755;28;20049;-64
2022/03/30 07:23:51;;;;;;;20.00;9.88;;;;;;;14.47;58.41;100411.81;5049741;28;20045;-64
2022/03/30 07:26:17;;;;;;;21.33;10.63;;;;;;;14.49;58.68;100417.00;5032855;28;20099;-64
2022/03/30 07:28:49;;;;;;;17.73;10.32;;;;;;;14.53;58.38;100423.69;5029202;28;20132;-64
2022/03/30 07:31:15;;;;;;;18.02;10.05;;;;;;;14.52;58.27;100408.81;5029881;28;20079;-64
2022/03/30 07:33:42;;;;;;;21.67;10.88;;;;;;;14.59;58.19;100411.81;5029139;28;20071;-64
2022/03/30 07:36:09;;;;;;;22.65;10.70;;;;;;;14.61;58.19;100408.09;5028398;28;20050;-64
2022/03/30 07:38:36;;;;;;;19.58;10.25;;;;;;;14.65;57.99;100414.84;5028800;28;20061;-64
2022/03/30 07:41:03;;;;;;;18.40;9.60;;;;;;;14.65;57.75;100414.84;5029631;28;20128;-65
2022/03/30 07:43:30;;;;;;;20.13;10.38;;;;;;;14.64;57.71;100410.53;5028460;28;20053;-64
2022/03/30 07:45:57;;;;;;;15.18;9.30;;;;;;;14.62;57.78;100404.47;5029396;28;20106;-64
2022/03/30 07:48:24;;;;;;;17.85;9.15;;;;;;;14.62;57.72;100403.66;5028646;28;20407;-64
2022/03/30 07:50:51;;;;;;;15.93;9.05;;;;;;;14.61;57.67;100402.81;5029143;28;20053;-64
2022/03/30 07:53:18;;;;;;;18.27;9.23;;;;;;;14.66;57.40;100398.03;5029420;28;20050;-64
2022/03/30 07:55:47;;;;;;;16.80;8.85;;;;;;;14.71;57.30;100394.19;5028508;28;20042;-64
2022/03/30 07:58:14;;;;;;;15.98;9.45;;;;;;;14.77;57.04;100383.16;5013735;28;20418;-64
2022/03/30 08:00:41;;;;;;;15.23;8.57;;;;;;;14.82;57.05;100376.50;5029064;28;20053;-63
2022/03/30 08:03:08;;;;;;;20.45;8.80;;;;;;;14.84;56.83;100371.09;5028255;28;20045;-63
2022/03/30 08:05:36;;;;;;;15.23;8.30;;;;;;;14.88;56.52;100372.56;5028993;28;20552;-63
2022/03/30 08:08:03;;;;;;;18.00;9.02;;;;;;;14.91;56.60;100361.72;5028677;28;20072;-63
2022/03/30 08:10:32;;;;;;;13.50;9.38;;;;;;;14.95;56.22;100365.78;5028783;28;20054;-63
2022/03/30 08:12:59;;;;;;;17.08;8.57;;;;;;;14.93;56.40;100362.44;5042140;28;20122;-63
2022/03/30 08:15:27;;;;;;;17.50;9.80;;;;;;;15.00;56.05;100368.06;5032454;28;20157;-63
2022/03/30 08:17:54;;;;;;;16.40;9.30;;;;;;;15.00;55.84;100365.44;5028082;28;20122;-63
2022/03/30 08:23:22;;;;;;;19.83;13.15;;;;;;;15.02;55.77;100361.69;4974255;28;20078;-67
2022/03/30 08:25:49;;;;;;;25.08;15.02;;;;;;;15.10;55.48;100369.00;5027824;28;20145;-67
2022/03/30 08:28:15;;;;;;;11.75;6.50;;;;;;;15.19;55.46;100359.47;5026400;28;20095;-62
2022/03/30 08:30:42;;;;;;;29.75;17.45;;;;;;;15.58;55.06;100361.56;5026337;28;20068;-63
2022/03/30 08:33:08;;;;;;;32.03;20.20;;;;;;;15.48;55.27;100364.97;5027354;28;20041;-66
2022/03/30 08:35:36;;;;;;;35.08;22.00;;;;;;;15.46;55.15;100363.44;5027540;28;20041;-63
2022/03/30 08:38:03;;;;;;;39.63;24.23;;;;;;;15.48;54.89;100372.91;5026831;28;20113;-64
2022/03/30 08:40:29;;;;;;;36.60;24.48;;;;;;;15.49;54.79;100387.81;5026891;28;20136;-63
2022/03/30 08:42:56;;;;;;;13.60;7.63;;;;;;;15.76;54.14;100394.41;5028069;28;20045;-64
2022/03/30 08:45:24;;;;;;;21.27;10.32;;;;;;;15.96;53.97;100403.34;5028225;28;20045;-63
2022/03/30 08:47:50;;;;;;;14.05;8.77;;;;;;;16.19;53.94;100399.69;5029467;28;20045;-63
2022/03/30 08:50:19;;;;;;;21.08;11.25;;;;;;;16.37;53.63;100395.44;5032272;28;20049;-63
2022/03/30 08:52:49;;;;;;;22.77;13.10;;;;;;;16.44;53.51;100390.44;5032325;28;20136;-64
2022/03/30 08:55:17;;;;;;;25.55;14.93;;;;;;;16.27;54.02;100390.09;5032650;28;20128;-65
2022/03/30 08:57:43;;;;;;;20.13;11.57;;;;;;;16.43;53.31;100381.69;5031524;28;20474;-65
2022/03/30 09:00:16;;;;;;;23.80;10.23;;;;;;;16.39;53.44;100374.13;5032420;28;20056;-64
2022/03/30 09:02:52;;;;;;;21.08;11.07;;;;;;;16.51;53.08;100374.88;5032278;28;20080;-64
2022/03/30 09:05:25;;;;;;;19.95;9.88;;;;;;;16.61;52.64;100370.44;5030984;28;20041;-65
2022/03/30 09:07:54;;;;;;;17.27;9.73;;;;;;;16.42;53.26;100371.22;5031378;28;20049;-62
2022/03/30 09:10:23;;;;;;;19.45;8.85;;;;;;;16.21;53.48;100368.63;5031585;28;20049;-62
2022/03/30 09:12:52;;;;;;;21.48;9.63;;;;;;;16.25;53.57;100367.38;5031779;28;20042;-63
2022/03/30 09:15:20;;;;;;;16.05;9.23;;;;;;;16.33;53.13;100364.91;5031366;28;20041;-62
2022/03/30 09:17:58;;;;;;;22.48;10.65;;;;;;;16.35;53.30;100370.91;5030969;28;20125;-63
2022/03/30 09:20:34;;;;;;;19.42;10.48;;;;;;;16.46;53.13;100367.34;5031507;28;20049;-63
2022/03/30 09:23:01;;;;;;;16.85;9.73;;;;;;;16.84;52.05;100367.56;5030507;28;20057;-62
2022/03/30 09:25:48;;;;;;;19.38;9.70;;;;;;;16.73;52.47;100357.91;5029747;28;20041;-62
2022/03/30 09:28:17;;;;;;;23.88;10.50;;;;;;;16.77;51.96;100349.56;5030746;28;20046;-63
2022/03/30 09:30:45;;;;;;;18.08;10.18;;;;;;;16.96;51.69;100358.53;5031508;28;20050;-63
2022/03/30 09:33:15;;;;;;;20.73;10.80;;;;;;;17.50;50.18;100355.47;5031586;28;20049;-63
2022/03/30 09:35:42;;;;;;;18.85;11.45;;;;;;;17.74;49.30;100347.88;5031280;28;20050;-63
2022/03/30 09:38:15;;;;;;;22.33;10.95;;;;;;;17.53;49.90;100347.22;5027582;28;20132;-63
2022/03/30 09:40:47;;;;;;;19.85;11.10;;;;;;;17.44;50.13;100343.59;5031217;28;20072;-63
2022/03/30 09:43:34;;;;;;;21.90;11.68;;;;;;;17.41;50.37;100343.91;5031245;28;20124;-63
2022/03/30 09:46:08;;;;;;;15.55;11.05;;;;;;;17.26;50.83;100341.66;5029802;28;20041;-63
2022/03/30 09:48:44;;;;;;;21.17;12.00;;;;;;;17.46;50.16;100342.47;5030790;28;20512;-63
2022/03/30 09:51:10;;;;;;;16.00;10.45;;;;;;;17.46;50.22;100328.38;5031734;28;20514;-63
2022/03/30 09:53:38;;;;;;;20.15;10.43;;;;;;;17.40;50.33;100329.78;5031582;28;20453;-63
2022/03/30 09:56:06;;;;;;;19.13;11.43;;;;;;;17.28;50.34;100323.81;5030075;28;20045;-63
2022/03/30 09:58:34;;;;;;;20.90;11.15;;;;;;;17.23;50.74;100319.88;5029618;28;20041;-63
2022/03/30 10:01:23;;;;;;;20.33;11.82;;;;;;;17.22;50.48;100319.06;5031476;28;20049;-63
2022/03/30 10:03:55;;;;;;;18.92;10.93;;;;;;;17.14;50.92;100310.94;5031732;28;20096;-63
2022/03/30 10:06:28;;;;;;;17.80;10.20;;;;;;;17.02;50.95;100301.50;5031207;28;20493;-63
2022/03/30 10:09:03;;;;;;;20.52;11.50;;;;;;;16.96;51.23;100306.38;5029321;28;20520;-63
2022/03/30 10:11:30;;;;;;;19.75;10.93;;;;;;;16.94;51.25;100291.59;5030796;28;20045;-63
2022/03/30 10:13:59;;;;;;;18.90;11.73;;;;;;;16.97;51.05;100280.69;5031439;28;20494;-63
2022/03/30 10:16:43;;;;;;;22.27;13.50;;;;;;;16.88;51.13;100284.16;5043869;28;20088;-62
2022/03/30 10:19:11;;;;;;;21.10;12.65;;;;;;;16.86;51.23;100275.50;5029651;28;20049;-63
2022/03/30 10:21:57;;;;;;;21.38;11.88;;;;;;;16.83;50.91;100270.50;5030894;28;20072;-63
2022/03/30 10:25:01;;;;;;;18.25;12.60;;;;;;;16.75;50.92;100268.53;5029700;28;20107;-63
2022/03/30 10:27:35;;;;;;;22.05;12.20;;;;;;;16.74;51.26;100261.56;5030094;28;20050;-63
2022/03/30 10:30:06;;;;;;;19.77;12.60;;;;;;;16.65;51.29;100250.81;5030780;28;20060;-63
2022/03/30 10:32:38;;;;;;;37.72;23.25;;;;;;;16.60;51.47;100252.22;5023662;28;20041;-62
2022/03/30 10:35:13;;;;;;;22.30;13.32;;;;;;;16.55;51.27;100251.78;5026100;28;20041;-63
2022/03/30 10:37:43;;;;;;;25.20;13.05;;;;;;;16.45;51.68;100254.41;5030145;28;20054;-63
2022/03/30 10:40:14;;;;;;;22.50;12.60;;;;;;;16.43;51.40;100238.66;5028912;28;20057;-63
2022/03/30 10:42:46;;;;;;;19.73;11.40;;;;;;;16.45;51.71;100244.66;5042109;28;20048;-63
2022/03/30 10:45:28;;;;;;;19.98;11.48;;;;;;;16.38;51.67;100243.53;5050478;28;20452;-63
2022/03/30 10:48:20;;;;;;;20.83;11.07;;;;;;;16.43;51.25;100240.47;5049555;28;20045;-64
2022/03/30 10:50:58;;;;;;;22.25;12.48;;;;;;;16.42;51.47;100244.13;5050085;28;20493;-63
2022/03/30 10:53:34;;;;;;;18.42;12.25;;;;;;;16.37;51.14;100252.47;5032048;28;20054;-63
2022/03/30 10:56:16;;;;;;;21.02;12.30;;;;;;;16.40;50.92;100252.16;5029745;28;20053;-64
2022/03/30 10:58:58;;;;;;;19.45;12.18;;;;;;;16.43;51.17;100257.22;5026865;28;20107;-63
2022/03/30 11:01:27;;;;;;;19.98;12.68;;;;;;;16.38;51.07;100251.50;5029700;28;20056;-63
2022/03/30 11:04:00;;;;;;;19.00;12.55;;;;;;;16.35;51.08;100250.91;5030058;28;20046;-63
2022/03/30 11:06:28;;;;;;;26.23;12.75;;;;;;;16.31;51.21;100253.00;5030127;28;20050;-63
2022/03/30 11:08:59;;;;;;;21.58;13.50;;;;;;;16.30;51.05;100249.53;5029260;28;20084;-63
2022/03/30 11:11:30;;;;;;;23.13;11.82;;;;;;;16.48;50.93;100246.19;5028800;28;20043;-68
2022/03/30 11:14:33;;;;;;;23.63;13.48;;;;;;;16.54;50.83;100253.59;5029875;28;20048;-64
2022/03/30 11:17:05;;;;;;;21.92;13.55;;;;;;;16.52;50.87;100238.81;5031774;28;20429;-67
2022/03/30 11:19:47;;;;;;;21.90;13.20;;;;;;;16.61;50.61;100240.66;5049078;28;20048;-64
2022/03/30 11:22:16;;;;;;;21.02;13.23;;;;;;;16.68;50.43;100238.28;5049432;28;20052;-65
2022/03/30 11:24:45;;;;;;;22.25;13.55;;;;;;;16.77;50.16;100235.63;5040522;28;20041;-64
2022/03/30 11:27:17;;;;;;;19.85;12.30;;;;;;;16.75;50.13;100237.56;5029526;28;20064;-64
2022/03/30 11:29:49;;;;;;;21.77;12.90;;;;;;;16.73;49.87;100231.56;5028392;28;20099;-63
2022/03/30 11:32:19;;;;;;;19.13;12.50;;;;;;;16.75;49.71;100226.97;5028540;28;20057;-62
2022/03/30 11:34:48;;;;;;;21.67;12.70;;;;;;;16.71;50.34;100222.09;5029395;28;20045;-62
2022/03/30 11:37:15;;;;;;;20.42;11.85;;;;;;;16.71;50.03;100222.09;5028734;28;20055;-62